sensor_id;sensor_type;location;lat;lon;timestamp;P1;durP1;ratioP1;P2;durP2;ratioP2
4027;SDS011;2028;51.346;12.396;2023-02-15T00:01:34;49.47;;;39.35;;
4027;SDS011;2028;51.346;12.396;2023-02-15T00:04:01;48.70;;;40.33;;
4027;SDS011;2028;51.346;12.396;2023-02-15T00:06:27;51.78;;;40.97;;
4027;SDS011;2028;51.346;12.396;2023-02-15T00:08:54;47.38;;;38.65;;
4027;SDS011;2028;51.346;12.396;2023-02-15T00:11:20;48.15;;;40.60;;
4027;SDS011;2028;51.346;12.396;2023-02-15T00:16:32;44.08;;;37.72;;
4027;SDS011;2028;51.346;12.396;2023-02-15T00:18:58;45.45;;;37.05;;
4027;SDS011;2028;51.346;12.396;2023-02-15T00:21:30;44.45;;;36.58;;
4027;SDS011;2028;51.346;12.396;2023-02-15T00:23:57;43.30;;;37.63;;
4027;SDS011;2028;51.346;12.396;2023-02-15T00:26:25;45.75;;;37.85;;
4027;SDS011;2028;51.346;12.396;2023-02-15T00:28:51;45.67;;;37.55;;
4027;SDS011;2028;51.346;12.396;2023-02-15T00:31:18;47.80;;;38.50;;
4027;SDS011;2028;51.346;12.396;2023-02-15T00:33:44;47.13;;;38.53;;
4027;SDS011;2028;51.346;12.396;2023-02-15T00:36:11;48.83;;;37.88;;
4027;SDS011;2028;51.346;12.396;2023-02-15T00:38:37;45.90;;;37.05;;
4027;SDS011;2028;51.346;12.396;2023-02-15T00:41:05;48.35;;;38.45;;
4027;SDS011;2028;51.346;12.396;2023-02-15T00:43:32;47.95;;;36.30;;
4027;SDS011;2028;51.346;12.396;2023-02-15T00:45:59;47.92;;;39.95;;
4027;SDS011;2028;51.346;12.396;2023-02-15T00:48:25;46.95;;;39.00;;
4027;SDS011;2028;51.346;12.396;2023-02-15T00:50:52;48.38;;;39.25;;
4027;SDS011;2028;51.346;12.396;2023-02-15T00:53:20;46.63;;;38.45;;
4027;SDS011;2028;51.346;12.396;2023-02-15T00:55:47;47.13;;;39.03;;
4027;SDS011;2028;51.346;12.396;2023-02-15T00:58:13;44.55;;;36.55;;
4027;SDS011;2028;51.346;12.396;2023-02-15T01:00:41;43.53;;;38.35;;
4027;SDS011;2028;51.346;12.396;2023-02-15T01:03:08;44.88;;;37.83;;
4027;SDS011;2028;51.346;12.396;2023-02-15T01:05:34;45.08;;;38.10;;
4027;SDS011;2028;51.346;12.396;2023-02-15T01:08:01;47.65;;;38.83;;
4027;SDS011;2028;51.346;12.396;2023-02-15T01:10:27;44.25;;;36.47;;
4027;SDS011;2028;51.346;12.396;2023-02-15T01:12:54;42.53;;;35.95;;
4027;SDS011;2028;51.346;12.396;2023-02-15T01:15:21;42.00;;;35.70;;
4027;SDS011;2028;51.346;12.396;2023-02-15T01:17:48;43.88;;;36.25;;
4027;SDS011;2028;51.346;12.396;2023-02-15T01:22:49;43.72;;;36.42;;
4027;SDS011;2028;51.346;12.396;2023-02-15T01:25:16;39.65;;;35.20;;
4027;SDS011;2028;51.346;12.396;2023-02-15T01:27:43;44.70;;;37.40;;
4027;SDS011;2028;51.346;12.396;2023-02-15T01:30:09;42.28;;;35.67;;
4027;SDS011;2028;51.346;12.396;2023-02-15T01:32:36;43.15;;;37.22;;
4027;SDS011;2028;51.346;12.396;2023-02-15T01:35:02;41.75;;;34.88;;
4027;SDS011;2028;51.346;12.396;2023-02-15T01:37:32;34.90;;;30.00;;
4027;SDS011;2028;51.346;12.396;2023-02-15T01:39:59;34.92;;;30.00;;
4027;SDS011;2028;51.346;12.396;2023-02-15T01:42:26;33.13;;;29.45;;
4027;SDS011;2028;51.346;12.396;2023-02-15T01:44:54;33.17;;;28.13;;
4027;SDS011;2028;51.346;12.396;2023-02-15T01:47:33;35.00;;;29.45;;
4027;SDS011;2028;51.346;12.396;2023-02-15T01:50:14;31.52;;;27.25;;
4027;SDS011;2028;51.346;12.396;2023-02-15T01:52:55;29.73;;;26.45;;
4027;SDS011;2028;51.346;12.396;2023-02-15T01:55:24;28.63;;;25.63;;
4027;SDS011;2028;51.346;12.396;2023-02-15T01:57:52;29.88;;;25.63;;
4027;SDS011;2028;51.346;12.396;2023-02-15T02:00:19;28.45;;;25.42;;
4027;SDS011;2028;51.346;12.396;2023-02-15T02:02:47;29.73;;;25.73;;
4027;SDS011;2028;51.346;12.396;2023-02-15T02:05:15;28.45;;;25.55;;
4027;SDS011;2028;51.346;12.396;2023-02-15T02:07:42;29.15;;;26.05;;
4027;SDS011;2028;51.346;12.396;2023-02-15T02:10:11;28.98;;;26.00;;
4027;SDS011;2028;51.346;12.396;2023-02-15T02:12:37;27.35;;;24.45;;
4027;SDS011;2028;51.346;12.396;2023-02-15T02:15:05;26.73;;;23.90;;
4027;SDS011;2028;51.346;12.396;2023-02-15T02:20:26;26.63;;;22.92;;
4027;SDS011;2028;51.346;12.396;2023-02-15T02:23:02;27.65;;;24.02;;
4027;SDS011;2028;51.346;12.396;2023-02-15T02:25:39;26.90;;;23.92;;
4027;SDS011;2028;51.346;12.396;2023-02-15T02:41:32;27.00;;;24.10;;
4027;SDS011;2028;51.346;12.396;2023-02-15T02:46:37;25.95;;;23.17;;
4027;SDS011;2028;51.346;12.396;2023-02-15T02:49:11;26.30;;;23.58;;
4027;SDS011;2028;51.346;12.396;2023-02-15T02:51:38;24.92;;;22.02;;
4027;SDS011;2028;51.346;12.396;2023-02-15T02:54:05;26.73;;;23.83;;
4027;SDS011;2028;51.346;12.396;2023-02-15T02:59:02;25.75;;;23.05;;
4027;SDS011;2028;51.346;12.396;2023-02-15T03:04:05;26.98;;;22.63;;
4027;SDS011;2028;51.346;12.396;2023-02-15T03:09:03;25.50;;;22.73;;
4027;SDS011;2028;51.346;12.396;2023-02-15T03:11:32;26.05;;;23.08;;
4027;SDS011;2028;51.346;12.396;2023-02-15T03:13:58;25.45;;;22.63;;
4027;SDS011;2028;51.346;12.396;2023-02-15T03:16:25;26.23;;;22.90;;
4027;SDS011;2028;51.346;12.396;2023-02-15T03:19:02;26.38;;;23.38;;
4027;SDS011;2028;51.346;12.396;2023-02-15T03:24:10;24.80;;;22.13;;
4027;SDS011;2028;51.346;12.396;2023-02-15T03:26:38;24.77;;;22.25;;
4027;SDS011;2028;51.346;12.396;2023-02-15T03:29:05;27.88;;;23.98;;
4027;SDS011;2028;51.346;12.396;2023-02-15T03:31:33;25.13;;;22.45;;
4027;SDS011;2028;51.346;12.396;2023-02-15T03:34:06;25.48;;;22.55;;
4027;SDS011;2028;51.346;12.396;2023-02-15T03:39:11;26.13;;;23.33;;
4027;SDS011;2028;51.346;12.396;2023-02-15T03:41:46;23.75;;;21.20;;
4027;SDS011;2028;51.346;12.396;2023-02-15T03:44:16;28.15;;;24.13;;
4027;SDS011;2028;51.346;12.396;2023-02-15T03:46:54;25.52;;;22.80;;
4027;SDS011;2028;51.346;12.396;2023-02-15T03:49:24;27.15;;;22.75;;
4027;SDS011;2028;51.346;12.396;2023-02-15T03:51:51;27.67;;;23.00;;
4027;SDS011;2028;51.346;12.396;2023-02-15T03:54:24;26.92;;;23.00;;
4027;SDS011;2028;51.346;12.396;2023-02-15T03:57:09;25.42;;;22.65;;
4027;SDS011;2028;51.346;12.396;2023-02-15T03:59:54;28.95;;;25.13;;
4027;SDS011;2028;51.346;12.396;2023-02-15T04:02:41;28.83;;;24.17;;
4027;SDS011;2028;51.346;12.396;2023-02-15T04:05:10;26.77;;;22.73;;
4027;SDS011;2028;51.346;12.396;2023-02-15T04:07:37;26.00;;;22.20;;
4027;SDS011;2028;51.346;12.396;2023-02-15T04:10:03;24.50;;;21.88;;
4027;SDS011;2028;51.346;12.396;2023-02-15T04:12:48;25.38;;;21.88;;
4027;SDS011;2028;51.346;12.396;2023-02-15T04:15:15;23.38;;;20.88;;
4027;SDS011;2028;51.346;12.396;2023-02-15T04:18:02;26.50;;;22.00;;
4027;SDS011;2028;51.346;12.396;2023-02-15T04:20:28;23.80;;;21.17;;
4027;SDS011;2028;51.346;12.396;2023-02-15T04:23:13;23.98;;;20.48;;
4027;SDS011;2028;51.346;12.396;2023-02-15T04:25:58;40.42;;;29.75;;
4027;SDS011;2028;51.346;12.396;2023-02-15T04:28:24;25.13;;;22.38;;
4027;SDS011;2028;51.346;12.396;2023-02-15T04:30:50;23.45;;;20.25;;
4027;SDS011;2028;51.346;12.396;2023-02-15T04:33:17;25.05;;;20.75;;
4027;SDS011;2028;51.346;12.396;2023-02-15T04:35:43;22.83;;;20.05;;
4027;SDS011;2028;51.346;12.396;2023-02-15T04:38:10;21.20;;;18.95;;
4027;SDS011;2028;51.346;12.396;2023-02-15T04:40:36;21.00;;;18.75;;
4027;SDS011;2028;51.346;12.396;2023-02-15T04:43:02;20.27;;;18.10;;
4027;SDS011;2028;51.346;12.396;2023-02-15T04:45:28;20.30;;;17.97;;
4027;SDS011;2028;51.346;12.396;2023-02-15T04:47:54;21.95;;;18.60;;
4027;SDS011;2028;51.346;12.396;2023-02-15T04:50:21;20.58;;;18.48;;
4027;SDS011;2028;51.346;12.396;2023-02-15T04:52:47;19.92;;;17.83;;
4027;SDS011;2028;51.346;12.396;2023-02-15T04:55:14;19.65;;;17.63;;
4027;SDS011;2028;51.346;12.396;2023-02-15T04:57:40;20.75;;;18.52;;
4027;SDS011;2028;51.346;12.396;2023-02-15T05:00:07;20.02;;;17.35;;
4027;SDS011;2028;51.346;12.396;2023-02-15T05:02:34;20.02;;;18.02;;
4027;SDS011;2028;51.346;12.396;2023-02-15T05:05:00;19.57;;;17.50;;
4027;SDS011;2028;51.346;12.396;2023-02-15T05:07:26;20.27;;;18.17;;
4027;SDS011;2028;51.346;12.396;2023-02-15T05:09:52;18.17;;;16.33;;
4027;SDS011;2028;51.346;12.396;2023-02-15T05:12:18;18.70;;;16.53;;
4027;SDS011;2028;51.346;12.396;2023-02-15T05:14:44;18.48;;;16.73;;
4027;SDS011;2028;51.346;12.396;2023-02-15T05:17:10;18.27;;;16.37;;
4027;SDS011;2028;51.346;12.396;2023-02-15T05:19:36;18.95;;;16.95;;
4027;SDS011;2028;51.346;12.396;2023-02-15T05:22:02;17.65;;;15.80;;
4027;SDS011;2028;51.346;12.396;2023-02-15T05:24:28;17.45;;;15.57;;
4027;SDS011;2028;51.346;12.396;2023-02-15T05:27:13;18.95;;;17.05;;
4027;SDS011;2028;51.346;12.396;2023-02-15T05:29:58;19.10;;;17.20;;
4027;SDS011;2028;51.346;12.396;2023-02-15T05:32:24;19.00;;;17.13;;
4027;SDS011;2028;51.346;12.396;2023-02-15T05:34:50;18.55;;;16.52;;
4027;SDS011;2028;51.346;12.396;2023-02-15T05:37:16;18.83;;;16.85;;
4027;SDS011;2028;51.346;12.396;2023-02-15T05:39:42;18.50;;;16.50;;
4027;SDS011;2028;51.346;12.396;2023-02-15T05:42:08;18.00;;;15.80;;
4027;SDS011;2028;51.346;12.396;2023-02-15T05:44:34;18.47;;;16.57;;
4027;SDS011;2028;51.346;12.396;2023-02-15T05:47:00;18.23;;;16.35;;
4027;SDS011;2028;51.346;12.396;2023-02-15T05:49:28;20.48;;;17.40;;
4027;SDS011;2028;51.346;12.396;2023-02-15T05:51:55;20.38;;;18.23;;
4027;SDS011;2028;51.346;12.396;2023-02-15T05:54:22;28.63;;;25.58;;
4027;SDS011;2028;51.346;12.396;2023-02-15T05:56:48;56.83;;;47.05;;
4027;SDS011;2028;51.346;12.396;2023-02-15T05:59:14;24.20;;;19.77;;
4027;SDS011;2028;51.346;12.396;2023-02-15T06:01:40;20.20;;;18.20;;
4027;SDS011;2028;51.346;12.396;2023-02-15T06:04:06;18.98;;;17.10;;
4027;SDS011;2028;51.346;12.396;2023-02-15T06:06:32;19.52;;;17.38;;
4027;SDS011;2028;51.346;12.396;2023-02-15T06:08:59;18.77;;;16.88;;
4027;SDS011;2028;51.346;12.396;2023-02-15T06:11:25;20.17;;;18.00;;
4027;SDS011;2028;51.346;12.396;2023-02-15T06:13:51;20.83;;;18.80;;
4027;SDS011;2028;51.346;12.396;2023-02-15T06:16:17;19.23;;;17.17;;
4027;SDS011;2028;51.346;12.396;2023-02-15T06:18:44;19.67;;;17.67;;
4027;SDS011;2028;51.346;12.396;2023-02-15T06:21:10;18.73;;;16.73;;
4027;SDS011;2028;51.346;12.396;2023-02-15T06:23:36;19.50;;;17.45;;
4027;SDS011;2028;51.346;12.396;2023-02-15T06:26:03;18.80;;;16.95;;
4027;SDS011;2028;51.346;12.396;2023-02-15T06:28:29;26.45;;;23.73;;
4027;SDS011;2028;51.346;12.396;2023-02-15T06:30:55;30.67;;;27.40;;
4027;SDS011;2028;51.346;12.396;2023-02-15T06:33:21;19.08;;;17.17;;
4027;SDS011;2028;51.346;12.396;2023-02-15T06:35:47;19.67;;;17.65;;
4027;SDS011;2028;51.346;12.396;2023-02-15T06:38:13;19.60;;;17.50;;
4027;SDS011;2028;51.346;12.396;2023-02-15T06:40:39;19.90;;;17.05;;
4027;SDS011;2028;51.346;12.396;2023-02-15T06:43:06;18.42;;;16.52;;
4027;SDS011;2028;51.346;12.396;2023-02-15T06:45:32;18.02;;;16.23;;
4027;SDS011;2028;51.346;12.396;2023-02-15T06:47:58;17.52;;;15.63;;
4027;SDS011;2028;51.346;12.396;2023-02-15T06:50:25;17.58;;;15.77;;
4027;SDS011;2028;51.346;12.396;2023-02-15T06:52:57;18.05;;;15.57;;
4027;SDS011;2028;51.346;12.396;2023-02-15T06:55:24;16.15;;;14.45;;
4027;SDS011;2028;51.346;12.396;2023-02-15T06:57:51;16.77;;;15.10;;
4027;SDS011;2028;51.346;12.396;2023-02-15T07:00:17;16.42;;;14.73;;
4027;SDS011;2028;51.346;12.396;2023-02-15T07:02:44;16.98;;;14.73;;
4027;SDS011;2028;51.346;12.396;2023-02-15T07:05:10;16.33;;;14.65;;
4027;SDS011;2028;51.346;12.396;2023-02-15T07:07:37;16.40;;;14.73;;
4027;SDS011;2028;51.346;12.396;2023-02-15T07:10:04;16.58;;;13.95;;
4027;SDS011;2028;51.346;12.396;2023-02-15T07:12:30;36.83;;;29.98;;
4027;SDS011;2028;51.346;12.396;2023-02-15T07:15:10;14.45;;;13.02;;
4027;SDS011;2028;51.346;12.396;2023-02-15T07:17:38;14.38;;;12.88;;
4027;SDS011;2028;51.346;12.396;2023-02-15T07:20:09;14.38;;;12.88;;
4027;SDS011;2028;51.346;12.396;2023-02-15T07:22:36;13.35;;;11.95;;
4027;SDS011;2028;51.346;12.396;2023-02-15T07:25:05;13.57;;;12.23;;
4027;SDS011;2028;51.346;12.396;2023-02-15T07:27:33;12.55;;;11.35;;
4027;SDS011;2028;51.346;12.396;2023-02-15T07:29:59;13.30;;;11.95;;
4027;SDS011;2028;51.346;12.396;2023-02-15T07:32:30;12.65;;;11.38;;
4027;SDS011;2028;51.346;12.396;2023-02-15T07:34:57;12.85;;;10.60;;
4027;SDS011;2028;51.346;12.396;2023-02-15T07:37:24;14.02;;;11.32;;
4027;SDS011;2028;51.346;12.396;2023-02-15T07:39:51;12.75;;;10.23;;
4027;SDS011;2028;51.346;12.396;2023-02-15T07:42:17;13.77;;;11.20;;
4027;SDS011;2028;51.346;12.396;2023-02-15T07:44:45;12.25;;;10.80;;
4027;SDS011;2028;51.346;12.396;2023-02-15T07:47:11;11.85;;;10.57;;
4027;SDS011;2028;51.346;12.396;2023-02-15T07:49:37;11.70;;;10.50;;
4027;SDS011;2028;51.346;12.396;2023-02-15T07:52:04;12.15;;;10.90;;
4027;SDS011;2028;51.346;12.396;2023-02-15T07:54:30;11.85;;;10.65;;
4027;SDS011;2028;51.346;12.396;2023-02-15T07:56:56;11.33;;;10.23;;
4027;SDS011;2028;51.346;12.396;2023-02-15T07:59:22;10.73;;;9.63;;
4027;SDS011;2028;51.346;12.396;2023-02-15T08:01:49;11.07;;;10.07;;
4027;SDS011;2028;51.346;12.396;2023-02-15T08:04:15;10.90;;;9.80;;
4027;SDS011;2028;51.346;12.396;2023-02-15T08:06:42;11.10;;;10.00;;
4027;SDS011;2028;51.346;12.396;2023-02-15T08:09:09;13.07;;;9.77;;
4027;SDS011;2028;51.346;12.396;2023-02-15T08:11:36;10.35;;;9.35;;
4027;SDS011;2028;51.346;12.396;2023-02-15T08:14:06;18.98;;;14.95;;
4027;SDS011;2028;51.346;12.396;2023-02-15T08:16:42;169.75;;;126.78;;
4027;SDS011;2028;51.346;12.396;2023-02-15T08:19:24;10.95;;;9.85;;
4027;SDS011;2028;51.346;12.396;2023-02-15T08:21:57;11.30;;;8.63;;
4027;SDS011;2028;51.346;12.396;2023-02-15T08:24:26;9.65;;;8.65;;
4027;SDS011;2028;51.346;12.396;2023-02-15T08:26:53;9.70;;;8.80;;
4027;SDS011;2028;51.346;12.396;2023-02-15T08:29:21;10.20;;;9.23;;
4027;SDS011;2028;51.346;12.396;2023-02-15T08:31:49;10.57;;;8.07;;
4027;SDS011;2028;51.346;12.396;2023-02-15T08:34:18;12.87;;;8.40;;
4027;SDS011;2028;51.346;12.396;2023-02-15T08:36:45;9.83;;;8.83;;
4027;SDS011;2028;51.346;12.396;2023-02-15T08:39:11;9.60;;;8.67;;
4027;SDS011;2028;51.346;12.396;2023-02-15T08:41:41;9.03;;;8.23;;
4027;SDS011;2028;51.346;12.396;2023-02-15T08:44:08;9.20;;;8.30;;
4027;SDS011;2028;51.346;12.396;2023-02-15T08:46:37;9.70;;;8.70;;
4027;SDS011;2028;51.346;12.396;2023-02-15T08:49:04;9.63;;;8.63;;
4027;SDS011;2028;51.346;12.396;2023-02-15T08:51:34;9.10;;;8.07;;
4027;SDS011;2028;51.346;12.396;2023-02-15T08:54:02;13.07;;;8.80;;
4027;SDS011;2028;51.346;12.396;2023-02-15T08:56:32;77.87;;;57.13;;
4027;SDS011;2028;51.346;12.396;2023-02-15T08:58:59;32.03;;;26.27;;
4027;SDS011;2028;51.346;12.396;2023-02-15T09:01:26;9.43;;;8.33;;
4027;SDS011;2028;51.346;12.396;2023-02-15T09:03:57;10.57;;;7.40;;
4027;SDS011;2028;51.346;12.396;2023-02-15T09:06:24;9.00;;;8.10;;
4027;SDS011;2028;51.346;12.396;2023-02-15T09:08:51;8.30;;;7.60;;
4027;SDS011;2028;51.346;12.396;2023-02-15T09:11:19;7.97;;;7.27;;
4027;SDS011;2028;51.346;12.396;2023-02-15T09:13:51;8.80;;;7.90;;
4027;SDS011;2028;51.346;12.396;2023-02-15T09:16:18;8.00;;;7.30;;
4027;SDS011;2028;51.346;12.396;2023-02-15T09:18:44;9.90;;;7.67;;
4027;SDS011;2028;51.346;12.396;2023-02-15T09:21:21;7.63;;;6.83;;
4027;SDS011;2028;51.346;12.396;2023-02-15T09:23:48;7.87;;;6.97;;
4027;SDS011;2028;51.346;12.396;2023-02-15T09:26:17;6.97;;;6.37;;
4027;SDS011;2028;51.346;12.396;2023-02-15T09:28:44;7.47;;;6.67;;
4027;SDS011;2028;51.346;12.396;2023-02-15T09:31:11;8.00;;;7.30;;
4027;SDS011;2028;51.346;12.396;2023-02-15T09:33:39;8.60;;;7.03;;
4027;SDS011;2028;51.346;12.396;2023-02-15T09:36:12;7.30;;;6.60;;
4027;SDS011;2028;51.346;12.396;2023-02-15T09:38:39;7.90;;;7.10;;
4027;SDS011;2028;51.346;12.396;2023-02-15T09:41:19;11.00;;;7.60;;
4027;SDS011;2028;51.346;12.396;2023-02-15T09:51:52;7.27;;;6.60;;
4027;SDS011;2028;51.346;12.396;2023-02-15T09:57:05;13.10;;;7.20;;
4027;SDS011;2028;51.346;12.396;2023-02-15T09:59:36;9.27;;;6.73;;
4027;SDS011;2028;51.346;12.396;2023-02-15T10:08:24;9.97;;;6.57;;
4027;SDS011;2028;51.346;12.396;2023-02-15T10:10:59;8.20;;;6.27;;
4027;SDS011;2028;51.346;12.396;2023-02-15T10:13:54;7.87;;;7.17;;
4027;SDS011;2028;51.346;12.396;2023-02-15T10:16:40;8.43;;;7.03;;
4027;SDS011;2028;51.346;12.396;2023-02-15T10:19:14;6.90;;;6.30;;
4027;SDS011;2028;51.346;12.396;2023-02-15T10:21:47;8.87;;;6.20;;
4027;SDS011;2028;51.346;12.396;2023-02-15T10:27:00;8.47;;;6.43;;
4027;SDS011;2028;51.346;12.396;2023-02-15T10:32:13;10.37;;;7.33;;
4027;SDS011;2028;51.346;12.396;2023-02-15T10:35:02;9.80;;;7.20;;
4027;SDS011;2028;51.346;12.396;2023-02-15T10:50:06;11.43;;;9.80;;
4027;SDS011;2028;51.346;12.396;2023-02-15T10:55:06;8.40;;;7.60;;
4027;SDS011;2028;51.346;12.396;2023-02-15T11:00:23;7.90;;;7.00;;
4027;SDS011;2028;51.346;12.396;2023-02-15T11:03:03;7.03;;;6.33;;
4027;SDS011;2028;51.346;12.396;2023-02-15T11:06:02;8.30;;;7.50;;
4027;SDS011;2028;51.346;12.396;2023-02-15T11:08:31;8.13;;;7.37;;
4027;SDS011;2028;51.346;12.396;2023-02-15T11:11:01;7.80;;;7.00;;
4027;SDS011;2028;51.346;12.396;2023-02-15T11:13:29;77.93;;;67.33;;
4027;SDS011;2028;51.346;12.396;2023-02-15T11:16:07;9.77;;;6.90;;
4027;SDS011;2028;51.346;12.396;2023-02-15T11:18:45;9.50;;;6.63;;
4027;SDS011;2028;51.346;12.396;2023-02-15T11:21:27;7.73;;;6.40;;
4027;SDS011;2028;51.346;12.396;2023-02-15T11:24:09;7.63;;;6.83;;
4027;SDS011;2028;51.346;12.396;2023-02-15T11:29:13;9.93;;;7.03;;
4027;SDS011;2028;51.346;12.396;2023-02-15T11:31:42;12.93;;;7.00;;
4027;SDS011;2028;51.346;12.396;2023-02-15T11:34:18;10.00;;;6.83;;
4027;SDS011;2028;51.346;12.396;2023-02-15T11:36:55;6.97;;;6.27;;
4027;SDS011;2028;51.346;12.396;2023-02-15T11:39:24;8.20;;;6.40;;
4027;SDS011;2028;51.346;12.396;2023-02-15T11:42:01;7.87;;;6.77;;
4027;SDS011;2028;51.346;12.396;2023-02-15T11:44:35;7.33;;;6.63;;
4027;SDS011;2028;51.346;12.396;2023-02-15T11:47:02;11.97;;;6.50;;
4027;SDS011;2028;51.346;12.396;2023-02-15T11:49:32;11.40;;;6.83;;
4027;SDS011;2028;51.346;12.396;2023-02-15T11:52:06;7.27;;;6.53;;
4027;SDS011;2028;51.346;12.396;2023-02-15T11:54:36;9.07;;;6.40;;
4027;SDS011;2028;51.346;12.396;2023-02-15T11:59:47;10.27;;;6.10;;
4027;SDS011;2028;51.346;12.396;2023-02-15T12:02:17;9.43;;;6.50;;
4027;SDS011;2028;51.346;12.396;2023-02-15T12:04:45;6.90;;;6.27;;
4027;SDS011;2028;51.346;12.396;2023-02-15T12:07:15;7.60;;;6.60;;
4027;SDS011;2028;51.346;12.396;2023-02-15T12:12:31;7.17;;;6.47;;
4027;SDS011;2028;51.346;12.396;2023-02-15T12:14:58;7.87;;;6.40;;
4027;SDS011;2028;51.346;12.396;2023-02-15T12:17:28;9.83;;;7.27;;
4027;SDS011;2028;51.346;12.396;2023-02-15T12:19:56;9.97;;;7.10;;
4027;SDS011;2028;51.346;12.396;2023-02-15T12:22:25;9.50;;;7.00;;
4027;SDS011;2028;51.346;12.396;2023-02-15T12:25:00;7.07;;;6.23;;
4027;SDS011;2028;51.346;12.396;2023-02-15T12:27:28;9.53;;;6.37;;
4027;SDS011;2028;51.346;12.396;2023-02-15T12:29:59;40.17;;;34.90;;
4027;SDS011;2028;51.346;12.396;2023-02-15T12:32:47;11.23;;;9.63;;
4027;SDS011;2028;51.346;12.396;2023-02-15T12:35:15;8.37;;;6.30;;
4027;SDS011;2028;51.346;12.396;2023-02-15T12:37:52;9.77;;;6.90;;
4027;SDS011;2028;51.346;12.396;2023-02-15T12:40:21;9.57;;;6.63;;
4027;SDS011;2028;51.346;12.396;2023-02-15T12:42:48;10.03;;;6.93;;
4027;SDS011;2028;51.346;12.396;2023-02-15T12:48:28;10.17;;;6.93;;
4027;SDS011;2028;51.346;12.396;2023-02-15T12:50:48;7.43;;;6.63;;
4027;SDS011;2028;51.346;12.396;2023-02-15T12:53:16;9.47;;;6.93;;
4027;SDS011;2028;51.346;12.396;2023-02-15T12:55:58;7.07;;;6.40;;
4027;SDS011;2028;51.346;12.396;2023-02-15T12:58:27;7.77;;;6.77;;
4027;SDS011;2028;51.346;12.396;2023-02-15T13:01:02;8.97;;;6.57;;
4027;SDS011;2028;51.346;12.396;2023-02-15T13:03:29;6.93;;;6.17;;
4027;SDS011;2028;51.346;12.396;2023-02-15T13:05:56;7.83;;;6.70;;
4027;SDS011;2028;51.346;12.396;2023-02-15T13:08:32;6.70;;;6.10;;
4027;SDS011;2028;51.346;12.396;2023-02-15T13:11:00;9.10;;;6.30;;
4027;SDS011;2028;51.346;12.396;2023-02-15T13:13:31;6.57;;;5.97;;
4027;SDS011;2028;51.346;12.396;2023-02-15T13:16:02;6.03;;;5.53;;
4027;SDS011;2028;51.346;12.396;2023-02-15T13:18:30;6.00;;;5.50;;
4027;SDS011;2028;51.346;12.396;2023-02-15T13:20:59;6.37;;;5.80;;
4027;SDS011;2028;51.346;12.396;2023-02-15T13:23:28;7.23;;;6.13;;
4027;SDS011;2028;51.346;12.396;2023-02-15T13:25:55;6.80;;;5.67;;
4027;SDS011;2028;51.346;12.396;2023-02-15T13:28:22;8.40;;;5.93;;
4027;SDS011;2028;51.346;12.396;2023-02-15T13:30:51;6.53;;;5.93;;
4027;SDS011;2028;51.346;12.396;2023-02-15T13:34:20;12.97;;;11.57;;
4027;SDS011;2028;51.346;12.396;2023-02-15T13:41:23;6.03;;;5.17;;
4027;SDS011;2028;51.346;12.396;2023-02-15T13:44:21;6.93;;;5.27;;
4027;SDS011;2028;51.346;12.396;2023-02-15T13:47:08;8.23;;;4.90;;
4027;SDS011;2028;51.346;12.396;2023-02-15T13:52:28;6.00;;;5.33;;
4027;SDS011;2028;51.346;12.396;2023-02-15T14:00:08;8.93;;;5.13;;
4027;SDS011;2028;51.346;12.396;2023-02-15T14:05:19;7.07;;;4.90;;
4027;SDS011;2028;51.346;12.396;2023-02-15T14:15:48;9.20;;;6.93;;
4027;SDS011;2028;51.346;12.396;2023-02-15T14:26:25;6.57;;;5.47;;
4027;SDS011;2028;51.346;12.396;2023-02-15T14:31:46;6.40;;;5.50;;
4027;SDS011;2028;51.346;12.396;2023-02-15T14:34:18;5.63;;;5.03;;
4027;SDS011;2028;51.346;12.396;2023-02-15T14:36:55;8.33;;;6.03;;
4027;SDS011;2028;51.346;12.396;2023-02-15T14:45:01;14.90;;;12.67;;
4027;SDS011;2028;51.346;12.396;2023-02-15T14:47:36;6.43;;;4.27;;
4027;SDS011;2028;51.346;12.396;2023-02-15T14:53:14;5.50;;;4.20;;
4027;SDS011;2028;51.346;12.396;2023-02-15T14:55:41;5.00;;;4.50;;
4027;SDS011;2028;51.346;12.396;2023-02-15T14:58:11;5.30;;;4.80;;
4027;SDS011;2028;51.346;12.396;2023-02-15T15:00:39;5.00;;;4.50;;
4027;SDS011;2028;51.346;12.396;2023-02-15T15:03:10;7.40;;;5.47;;
4027;SDS011;2028;51.346;12.396;2023-02-15T15:05:49;8.33;;;6.23;;
4027;SDS011;2028;51.346;12.396;2023-02-15T15:08:37;6.13;;;5.53;;
4027;SDS011;2028;51.346;12.396;2023-02-15T15:16:45;5.00;;;4.60;;
4027;SDS011;2028;51.346;12.396;2023-02-15T15:19:56;5.17;;;4.67;;
4027;SDS011;2028;51.346;12.396;2023-02-15T15:22:03;6.93;;;5.17;;
4027;SDS011;2028;51.346;12.396;2023-02-15T15:30:09;6.03;;;5.50;;
4027;SDS011;2028;51.346;12.396;2023-02-15T15:44:08;9.90;;;5.33;;
4027;SDS011;2028;51.346;12.396;2023-02-15T15:49:29;5.07;;;4.63;;
4027;SDS011;2028;51.346;12.396;2023-02-15T15:51:59;5.57;;;5.00;;
4027;SDS011;2028;51.346;12.396;2023-02-15T15:54:27;7.27;;;5.30;;
4027;SDS011;2028;51.346;12.396;2023-02-15T15:57:02;10.80;;;5.77;;
4027;SDS011;2028;51.346;12.396;2023-02-15T15:59:30;6.07;;;5.47;;
4027;SDS011;2028;51.346;12.396;2023-02-15T16:02:03;8.63;;;5.83;;
4027;SDS011;2028;51.346;12.396;2023-02-15T16:04:36;9.03;;;5.43;;
4027;SDS011;2028;51.346;12.396;2023-02-15T16:07:13;7.43;;;5.50;;
4027;SDS011;2028;51.346;12.396;2023-02-15T16:09:40;5.90;;;5.30;;
4027;SDS011;2028;51.346;12.396;2023-02-15T16:12:13;5.60;;;5.10;;
4027;SDS011;2028;51.346;12.396;2023-02-15T16:14:40;10.17;;;6.13;;
4027;SDS011;2028;51.346;12.396;2023-02-15T16:17:13;19.97;;;17.17;;
4027;SDS011;2028;51.346;12.396;2023-02-15T16:19:41;22.83;;;20.43;;
4027;SDS011;2028;51.346;12.396;2023-02-15T16:22:13;9.63;;;8.57;;
4027;SDS011;2028;51.346;12.396;2023-02-15T16:27:35;7.33;;;6.53;;
4027;SDS011;2028;51.346;12.396;2023-02-15T16:32:47;7.07;;;6.10;;
4027;SDS011;2028;51.346;12.396;2023-02-15T16:35:18;11.23;;;6.50;;
4027;SDS011;2028;51.346;12.396;2023-02-15T16:37:45;9.00;;;6.60;;
4027;SDS011;2028;51.346;12.396;2023-02-15T16:42:53;11.80;;;6.83;;
4027;SDS011;2028;51.346;12.396;2023-02-15T16:45:21;8.47;;;7.47;;
4027;SDS011;2028;51.346;12.396;2023-02-15T16:47:52;9.13;;;7.80;;
4027;SDS011;2028;51.346;12.396;2023-02-15T16:50:34;10.30;;;7.67;;
4027;SDS011;2028;51.346;12.396;2023-02-15T16:53:02;10.07;;;7.40;;
4027;SDS011;2028;51.346;12.396;2023-02-15T16:55:32;14.23;;;7.90;;
4027;SDS011;2028;51.346;12.396;2023-02-15T16:58:00;8.23;;;7.17;;
4027;SDS011;2028;51.346;12.396;2023-02-15T17:00:34;11.20;;;7.47;;
4027;SDS011;2028;51.346;12.396;2023-02-15T17:03:05;9.17;;;7.77;;
4027;SDS011;2028;51.346;12.396;2023-02-15T17:05:44;14.43;;;8.10;;
4027;SDS011;2028;51.346;12.396;2023-02-15T17:08:15;9.97;;;7.60;;
4027;SDS011;2028;51.346;12.396;2023-02-15T17:10:46;15.67;;;8.20;;
4027;SDS011;2028;51.346;12.396;2023-02-15T17:13:28;9.57;;;7.47;;
4027;SDS011;2028;51.346;12.396;2023-02-15T17:18:30;11.40;;;10.13;;
4027;SDS011;2028;51.346;12.396;2023-02-15T17:20:59;16.73;;;13.57;;
4027;SDS011;2028;51.346;12.396;2023-02-15T17:23:30;18.07;;;13.07;;
4027;SDS011;2028;51.346;12.396;2023-02-15T17:25:57;12.23;;;9.80;;
4027;SDS011;2028;51.346;12.396;2023-02-15T17:28:25;11.63;;;8.93;;
4027;SDS011;2028;51.346;12.396;2023-02-15T17:30:52;14.27;;;8.83;;
4027;SDS011;2028;51.346;12.396;2023-02-15T17:33:21;17.57;;;9.90;;
4027;SDS011;2028;51.346;12.396;2023-02-15T17:36:07;13.60;;;9.30;;
4027;SDS011;2028;51.346;12.396;2023-02-15T17:38:36;14.67;;;9.30;;
4027;SDS011;2028;51.346;12.396;2023-02-15T17:41:02;9.67;;;8.67;;
4027;SDS011;2028;51.346;12.396;2023-02-15T17:43:29;12.13;;;8.73;;
4027;SDS011;2028;51.346;12.396;2023-02-15T17:45:56;10.30;;;8.67;;
4027;SDS011;2028;51.346;12.396;2023-02-15T17:48:24;9.67;;;8.53;;
4027;SDS011;2028;51.346;12.396;2023-02-15T17:50:56;11.57;;;8.30;;